sensor_id;sensor_type;location;lat;lon;timestamp;temperature;humidity
17437;DHT22;73152;52.198;5.422;2024-02-21T00:01:06;20.30;51.60
17437;DHT22;73152;52.198;5.422;2024-02-21T00:03:35;20.30;51.20
17437;DHT22;73152;52.198;5.422;2024-02-21T00:06:04;20.20;52.20
17437;DHT22;73152;52.198;5.422;2024-02-21T00:08:33;20.30;51.30
17437;DHT22;73152;52.198;5.422;2024-02-21T00:11:05;20.30;51.30
17437;DHT22;73152;52.198;5.422;2024-02-21T00:13:34;20.30;51.20
17437;DHT22;73152;52.198;5.422;2024-02-21T00:16:03;20.30;51.00
17437;DHT22;73152;52.198;5.422;2024-02-21T00:18:32;20.30;51.00
17437;DHT22;73152;52.198;5.422;2024-02-21T00:21:01;20.20;51.90
17437;DHT22;73152;52.198;5.422;2024-02-21T00:23:30;20.20;51.90
17437;DHT22;73152;52.198;5.422;2024-02-21T00:25:59;20.30;51.10
17437;DHT22;73152;52.198;5.422;2024-02-21T00:28:30;20.30;51.00
17437;DHT22;73152;52.198;5.422;2024-02-21T00:34:10;20.20;51.70
17437;DHT22;73152;52.198;5.422;2024-02-21T00:36:39;20.20;51.60
17437;DHT22;73152;52.198;5.422;2024-02-21T00:39:08;20.20;52.40
17437;DHT22;73152;52.198;5.422;2024-02-21T00:41:37;20.20;52.40
17437;DHT22;73152;52.198;5.422;2024-02-21T00:44:08;20.20;52.00
17437;DHT22;73152;52.198;5.422;2024-02-21T00:46:37;20.20;52.10
17437;DHT22;73152;52.198;5.422;2024-02-21T00:49:06;20.20;52.00
17437;DHT22;73152;52.198;5.422;2024-02-21T00:51:35;20.20;51.90
17437;DHT22;73152;52.198;5.422;2024-02-21T00:54:04;20.30;51.80
17437;DHT22;73152;52.198;5.422;2024-02-21T00:56:33;20.30;52.00
17437;DHT22;73152;52.198;5.422;2024-02-21T00:59:02;20.30;51.70
17437;DHT22;73152;52.198;5.422;2024-02-21T01:01:33;20.20;52.00
17437;DHT22;73152;52.198;5.422;2024-02-21T01:04:02;20.30;51.60
17437;DHT22;73152;52.198;5.422;2024-02-21T01:06:31;20.20;52.30
17437;DHT22;73152;52.198;5.422;2024-02-21T01:09:00;20.30;51.60
17437;DHT22;73152;52.198;5.422;2024-02-21T01:11:29;20.30;51.80
17437;DHT22;73152;52.198;5.422;2024-02-21T01:13:58;20.20;51.90
17437;DHT22;73152;52.198;5.422;2024-02-21T01:16:27;20.30;51.80
17437;DHT22;73152;52.198;5.422;2024-02-21T01:18:58;20.30;51.30
17437;DHT22;73152;52.198;5.422;2024-02-21T01:21:27;20.30;51.40
17437;DHT22;73152;52.198;5.422;2024-02-21T01:23:56;20.30;51.70
17437;DHT22;73152;52.198;5.422;2024-02-21T01:26:25;20.30;51.50
17437;DHT22;73152;52.198;5.422;2024-02-21T01:28:54;20.20;51.60
17437;DHT22;73152;52.198;5.422;2024-02-21T01:31:23;20.20;51.90
17437;DHT22;73152;52.198;5.422;2024-02-21T01:37:18;20.20;51.60
17437;DHT22;73152;52.198;5.422;2024-02-21T01:46:01;20.20;51.90
17437;DHT22;73152;52.198;5.422;2024-02-21T01:48:30;20.20;52.10
17437;DHT22;73152;52.198;5.422;2024-02-21T01:50:59;20.30;51.20
17437;DHT22;73152;52.198;5.422;2024-02-21T01:53:34;20.30;50.90
17437;DHT22;73152;52.198;5.422;2024-02-21T01:56:06;20.20;51.60
17437;DHT22;73152;52.198;5.422;2024-02-21T01:58:37;20.30;51.20
17437;DHT22;73152;52.198;5.422;2024-02-21T02:01:09;20.20;51.40
17437;DHT22;73152;52.198;5.422;2024-02-21T02:03:38;20.20;51.70
17437;DHT22;73152;52.198;5.422;2024-02-21T02:06:08;20.20;51.90
17437;DHT22;73152;52.198;5.422;2024-02-21T02:08:39;20.20;52.60
17437;DHT22;73152;52.198;5.422;2024-02-21T02:11:08;20.20;52.70
17437;DHT22;73152;52.198;5.422;2024-02-21T02:13:38;20.20;52.10
17437;DHT22;73152;52.198;5.422;2024-02-21T02:16:06;20.20;52.20
17437;DHT22;73152;52.198;5.422;2024-02-21T02:18:35;20.30;51.70
17437;DHT22;73152;52.198;5.422;2024-02-21T02:21:05;20.20;52.20
17437;DHT22;73152;52.198;5.422;2024-02-21T02:23:44;20.30;51.50
17437;DHT22;73152;52.198;5.422;2024-02-21T02:26:13;20.30;51.80
17437;DHT22;73152;52.198;5.422;2024-02-21T02:28:42;20.20;52.00
17437;DHT22;73152;52.198;5.422;2024-02-21T02:31:11;20.20;52.50
17437;DHT22;73152;52.198;5.422;2024-02-21T02:33:41;20.30;52.00
17437;DHT22;73152;52.198;5.422;2024-02-21T02:36:11;20.30;51.70
17437;DHT22;73152;52.198;5.422;2024-02-21T02:38:40;20.30;51.80
17437;DHT22;73152;52.198;5.422;2024-02-21T02:41:11;20.30;51.60
17437;DHT22;73152;52.198;5.422;2024-02-21T02:43:40;20.30;52.10
17437;DHT22;73152;52.198;5.422;2024-02-21T02:46:09;20.30;51.70
17437;DHT22;73152;52.198;5.422;2024-02-21T02:48:38;20.20;52.40
17437;DHT22;73152;52.198;5.422;2024-02-21T02:51:07;20.20;52.30
17437;DHT22;73152;52.198;5.422;2024-02-21T02:53:36;20.30;52.00
17437;DHT22;73152;52.198;5.422;2024-02-21T02:56:05;20.30;52.20
17437;DHT22;73152;52.198;5.422;2024-02-21T02:58:36;20.30;52.60
17437;DHT22;73152;52.198;5.422;2024-02-21T03:01:07;20.20;52.80
17437;DHT22;73152;52.198;5.422;2024-02-21T03:03:35;20.20;52.90
17437;DHT22;73152;52.198;5.422;2024-02-21T03:06:04;20.30;52.60
17437;DHT22;73152;52.198;5.422;2024-02-21T03:08:33;20.30;52.70
17437;DHT22;73152;52.198;5.422;2024-02-21T03:11:03;20.30;52.50
17437;DHT22;73152;52.198;5.422;2024-02-21T03:20:27;20.30;52.30
17437;DHT22;73152;52.198;5.422;2024-02-21T03:22:56;20.30;52.60
17437;DHT22;73152;52.198;5.422;2024-02-21T03:25:25;20.40;51.40
17437;DHT22;73152;52.198;5.422;2024-02-21T03:27:54;20.40;52.00
17437;DHT22;73152;52.198;5.422;2024-02-21T03:30:22;20.30;52.00
17437;DHT22;73152;52.198;5.422;2024-02-21T03:32:51;20.30;52.70
17437;DHT22;73152;52.198;5.422;2024-02-21T03:35:20;20.30;52.70
17437;DHT22;73152;52.198;5.422;2024-02-21T03:37:54;20.30;52.80
17437;DHT22;73152;52.198;5.422;2024-02-21T03:40:23;20.30;52.90
17437;DHT22;73152;52.198;5.422;2024-02-21T03:42:52;20.30;52.90
17437;DHT22;73152;52.198;5.422;2024-02-21T03:45:21;20.30;52.90
17437;DHT22;73152;52.198;5.422;2024-02-21T03:47:50;20.30;52.60
17437;DHT22;73152;52.198;5.422;2024-02-21T03:50:19;20.40;52.10
17437;DHT22;73152;52.198;5.422;2024-02-21T03:52:48;20.30;52.70
17437;DHT22;73152;52.198;5.422;2024-02-21T03:55:19;20.40;52.80
17437;DHT22;73152;52.198;5.422;2024-02-21T03:57:48;20.30;53.00
17437;DHT22;73152;52.198;5.422;2024-02-21T04:00:18;20.30;53.00
17437;DHT22;73152;52.198;5.422;2024-02-21T04:02:47;20.30;53.00
17437;DHT22;73152;52.198;5.422;2024-02-21T04:05:16;20.30;53.10
17437;DHT22;73152;52.198;5.422;2024-02-21T04:07:45;20.40;52.30
17437;DHT22;73152;52.198;5.422;2024-02-21T04:10:13;20.40;52.60
17437;DHT22;73152;52.198;5.422;2024-02-21T04:12:45;20.40;52.60
17437;DHT22;73152;52.198;5.422;2024-02-21T04:15:16;20.40;52.60
17437;DHT22;73152;52.198;5.422;2024-02-21T04:17:45;20.40;52.40
17437;DHT22;73152;52.198;5.422;2024-02-21T04:20:14;20.40;52.60
17437;DHT22;73152;52.198;5.422;2024-02-21T04:22:44;20.40;52.70
17437;DHT22;73152;52.198;5.422;2024-02-21T04:25:13;20.40;52.90
17437;DHT22;73152;52.198;5.422;2024-02-21T04:27:45;20.40;52.90
17437;DHT22;73152;52.198;5.422;2024-02-21T04:30:14;20.40;52.60
17437;DHT22;73152;52.198;5.422;2024-02-21T04:32:43;20.40;52.90
17437;DHT22;73152;52.198;5.422;2024-02-21T04:35:12;20.40;51.80
17437;DHT22;73152;52.198;5.422;2024-02-21T04:37:41;20.40;52.20
17437;DHT22;73152;52.198;5.422;2024-02-21T04:40:11;20.40;52.60
17437;DHT22;73152;52.198;5.422;2024-02-21T04:42:40;20.30;52.80
17437;DHT22;73152;52.198;5.422;2024-02-21T04:45:12;20.40;52.20
17437;DHT22;73152;52.198;5.422;2024-02-21T04:47:42;20.40;52.20
17437;DHT22;73152;52.198;5.422;2024-02-21T04:50:11;20.40;52.30
17437;DHT22;73152;52.198;5.422;2024-02-21T04:52:40;20.40;52.30
17437;DHT22;73152;52.198;5.422;2024-02-21T04:55:09;20.40;51.90
17437;DHT22;73152;52.198;5.422;2024-02-21T04:57:38;20.40;51.70
17437;DHT22;73152;52.198;5.422;2024-02-21T05:00:08;20.30;52.60
17437;DHT22;73152;52.198;5.422;2024-02-21T05:02:40;20.30;52.90
17437;DHT22;73152;52.198;5.422;2024-02-21T05:05:08;20.30;53.00
17437;DHT22;73152;52.198;5.422;2024-02-21T05:07:37;20.30;52.90
17437;DHT22;73152;52.198;5.422;2024-02-21T05:10:08;20.30;53.10
17437;DHT22;73152;52.198;5.422;2024-02-21T05:12:37;20.30;53.00
17437;DHT22;73152;52.198;5.422;2024-02-21T05:15:07;20.40;52.40
17437;DHT22;73152;52.198;5.422;2024-02-21T05:17:39;20.30;52.90
17437;DHT22;73152;52.198;5.422;2024-02-21T05:20:09;20.40;51.60
17437;DHT22;73152;52.198;5.422;2024-02-21T05:22:39;20.40;51.90
17437;DHT22;73152;52.198;5.422;2024-02-21T05:25:08;20.40;52.20
17437;DHT22;73152;52.198;5.422;2024-02-21T05:27:37;20.40;51.90
17437;DHT22;73152;52.198;5.422;2024-02-21T05:30:07;20.40;52.30
17437;DHT22;73152;52.198;5.422;2024-02-21T05:32:39;20.40;51.80
17437;DHT22;73152;52.198;5.422;2024-02-21T05:35:08;20.30;52.50
17437;DHT22;73152;52.198;5.422;2024-02-21T05:37:37;20.40;52.10
17437;DHT22;73152;52.198;5.422;2024-02-21T05:40:07;20.30;52.40
17437;DHT22;73152;52.198;5.422;2024-02-21T05:42:37;20.30;52.90
17437;DHT22;73152;52.198;5.422;2024-02-21T05:45:07;20.30;52.80
17437;DHT22;73152;52.198;5.422;2024-02-21T05:47:39;20.30;53.10
17437;DHT22;73152;52.198;5.422;2024-02-21T05:50:08;20.30;53.00
17437;DHT22;73152;52.198;5.422;2024-02-21T05:52:38;20.40;52.50
17437;DHT22;73152;52.198;5.422;2024-02-21T05:55:07;20.30;52.40
17437;DHT22;73152;52.198;5.422;2024-02-21T05:57:37;20.40;52.40
17437;DHT22;73152;52.198;5.422;2024-02-21T06:00:07;20.40;52.40
17437;DHT22;73152;52.198;5.422;2024-02-21T06:02:39;20.30;52.80
17437;DHT22;73152;52.198;5.422;2024-02-21T06:05:08;20.30;53.10
17437;DHT22;73152;52.198;5.422;2024-02-21T06:07:38;20.30;52.70
17437;DHT22;73152;52.198;5.422;2024-02-21T06:10:08;20.40;52.50
17437;DHT22;73152;52.198;5.422;2024-02-21T06:12:37;20.40;51.80
17437;DHT22;73152;52.198;5.422;2024-02-21T06:15:07;20.40;51.90
17437;DHT22;73152;52.198;5.422;2024-02-21T06:17:39;20.30;52.20
17437;DHT22;73152;52.198;5.422;2024-02-21T06:20:09;20.30;52.20
17437;DHT22;73152;52.198;5.422;2024-02-21T06:22:38;20.30;52.50
17437;DHT22;73152;52.198;5.422;2024-02-21T06:25:07;20.30;53.00
17437;DHT22;73152;52.198;5.422;2024-02-21T06:34:29;20.30;52.20
17437;DHT22;73152;52.198;5.422;2024-02-21T06:36:58;20.30;52.40
17437;DHT22;73152;52.198;5.422;2024-02-21T06:39:27;20.30;52.70
17437;DHT22;73152;52.198;5.422;2024-02-21T06:41:56;20.30;52.80
17437;DHT22;73152;52.198;5.422;2024-02-21T06:44:26;20.40;52.20
17437;DHT22;73152;52.198;5.422;2024-02-21T06:46:54;20.40;51.60
17437;DHT22;73152;52.198;5.422;2024-02-21T06:49:24;20.40;51.90
17437;DHT22;73152;52.198;5.422;2024-02-21T06:51:55;20.30;52.20
17437;DHT22;73152;52.198;5.422;2024-02-21T06:54:24;20.30;51.90
17437;DHT22;73152;52.198;5.422;2024-02-21T06:56:53;20.30;52.20
17437;DHT22;73152;52.198;5.422;2024-02-21T06:59:22;20.30;52.40
17437;DHT22;73152;52.198;5.422;2024-02-21T07:01:54;20.30;52.80
17437;DHT22;73152;52.198;5.422;2024-02-21T07:04:23;20.30;52.60
17437;DHT22;73152;52.198;5.422;2024-02-21T07:06:55;20.30;52.00
17437;DHT22;73152;52.198;5.422;2024-02-21T07:09:24;20.40;51.70
17437;DHT22;73152;52.198;5.422;2024-02-21T07:11:54;20.40;51.90
17437;DHT22;73152;52.198;5.422;2024-02-21T07:14:23;20.30;52.80
17437;DHT22;73152;52.198;5.422;2024-02-21T07:16:52;20.30;52.60
17437;DHT22;73152;52.198;5.422;2024-02-21T07:19:23;20.30;52.30
17437;DHT22;73152;52.198;5.422;2024-02-21T07:21:51;20.30;52.30
17437;DHT22;73152;52.198;5.422;2024-02-21T07:24:23;20.30;51.90
17437;DHT22;73152;52.198;5.422;2024-02-21T07:26:52;20.40;51.40
17437;DHT22;73152;52.198;5.422;2024-02-21T07:29:21;20.30;51.80
17437;DHT22;73152;52.198;5.422;2024-02-21T07:31:50;20.30;52.30
17437;DHT22;73152;52.198;5.422;2024-02-21T07:34:19;20.30;52.70
17437;DHT22;73152;52.198;5.422;2024-02-21T07:36:48;20.30;52.70
17437;DHT22;73152;52.198;5.422;2024-02-21T07:39:17;20.30;53.00
17437;DHT22;73152;52.198;5.422;2024-02-21T07:41:49;20.30;52.80
17437;DHT22;73152;52.198;5.422;2024-02-21T07:44:17;20.30;52.90
17437;DHT22;73152;52.198;5.422;2024-02-21T07:46:46;20.30;52.70
17437;DHT22;73152;52.198;5.422;2024-02-21T07:49:15;20.40;52.70
17437;DHT22;73152;52.198;5.422;2024-02-21T07:51:44;20.30;52.80
17437;DHT22;73152;52.198;5.422;2024-02-21T07:57:42;20.40;52.30
17437;DHT22;73152;52.198;5.422;2024-02-21T08:00:11;20.40;52.60
17437;DHT22;73152;52.198;5.422;2024-02-21T08:02:45;20.40;52.80
17437;DHT22;73152;52.198;5.422;2024-02-21T08:05:14;20.40;52.50
17437;DHT22;73152;52.198;5.422;2024-02-21T08:07:43;20.40;52.30
17437;DHT22;73152;52.198;5.422;2024-02-21T08:10:11;20.40;51.90
17437;DHT22;73152;52.198;5.422;2024-02-21T08:12:43;20.40;52.30
17437;DHT22;73152;52.198;5.422;2024-02-21T08:15:12;20.40;52.50
17437;DHT22;73152;52.198;5.422;2024-02-21T08:17:41;20.40;52.40
17437;DHT22;73152;52.198;5.422;2024-02-21T08:20:10;20.40;52.10
17437;DHT22;73152;52.198;5.422;2024-02-21T08:22:39;20.40;52.00
17437;DHT22;73152;52.198;5.422;2024-02-21T08:25:08;20.40;52.60
17437;DHT22;73152;52.198;5.422;2024-02-21T08:27:37;20.40;52.10
17437;DHT22;73152;52.198;5.422;2024-02-21T08:30:10;20.50;52.00
17437;DHT22;73152;52.198;5.422;2024-02-21T08:32:39;20.40;52.40
17437;DHT22;73152;52.198;5.422;2024-02-21T08:35:08;20.50;52.40
17437;DHT22;73152;52.198;5.422;2024-02-21T08:37:37;20.40;52.70
17437;DHT22;73152;52.198;5.422;2024-02-21T08:40:09;20.40;52.50
17437;DHT22;73152;52.198;5.422;2024-02-21T08:42:39;20.50;51.60
17437;DHT22;73152;52.198;5.422;2024-02-21T08:45:11;20.50;51.70
17437;DHT22;73152;52.198;5.422;2024-02-21T08:47:40;20.50;51.70
17437;DHT22;73152;52.198;5.422;2024-02-21T08:50:10;20.50;51.80
17437;DHT22;73152;52.198;5.422;2024-02-21T08:52:39;20.50;51.80
17437;DHT22;73152;52.198;5.422;2024-02-21T08:55:08;20.50;52.30
17437;DHT22;73152;52.198;5.422;2024-02-21T09:04:30;20.60;53.30
17437;DHT22;73152;52.198;5.422;2024-02-21T09:06:59;20.70;52.30
17437;DHT22;73152;52.198;5.422;2024-02-21T09:09:28;20.60;52.60
17437;DHT22;73152;52.198;5.422;2024-02-21T09:11:58;20.60;53.00
17437;DHT22;73152;52.198;5.422;2024-02-21T09:14:31;20.60;53.10
17437;DHT22;73152;52.198;5.422;2024-02-21T09:17:00;20.60;53.40
17437;DHT22;73152;52.198;5.422;2024-02-21T09:19:31;20.60;53.20
17437;DHT22;73152;52.198;5.422;2024-02-21T09:22:00;20.70;52.40
17437;DHT22;73152;52.198;5.422;2024-02-21T09:24:29;20.80;52.30
17437;DHT22;73152;52.198;5.422;2024-02-21T09:26:58;20.80;52.20
17437;DHT22;73152;52.198;5.422;2024-02-21T09:29:28;20.80;52.50
17437;DHT22;73152;52.198;5.422;2024-02-21T09:31:58;20.80;52.60
17437;DHT22;73152;52.198;5.422;2024-02-21T09:34:31;20.90;52.20
17437;DHT22;73152;52.198;5.422;2024-02-21T09:36:59;20.90;52.30
17437;DHT22;73152;52.198;5.422;2024-02-21T09:39:28;20.90;52.40
17437;DHT22;73152;52.198;5.422;2024-02-21T09:42:00;20.90;52.60
17437;DHT22;73152;52.198;5.422;2024-02-21T09:44:37;20.90;52.10
17437;DHT22;73152;52.198;5.422;2024-02-21T09:47:11;21.00;52.00
17437;DHT22;73152;52.198;5.422;2024-02-21T09:49:54;21.00;51.80
17437;DHT22;73152;52.198;5.422;2024-02-21T09:52:26;21.00;51.20
17437;DHT22;73152;52.198;5.422;2024-02-21T09:54:55;21.00;51.70
17437;DHT22;73152;52.198;5.422;2024-02-21T09:57:26;21.00;51.90
17437;DHT22;73152;52.198;5.422;2024-02-21T09:59:56;21.00;51.80
17437;DHT22;73152;52.198;5.422;2024-02-21T10:02:26;21.10;51.20
17437;DHT22;73152;52.198;5.422;2024-02-21T10:04:57;21.10;51.70
17437;DHT22;73152;52.198;5.422;2024-02-21T10:07:28;21.10;51.90
17437;DHT22;73152;52.198;5.422;2024-02-21T10:10:01;21.10;51.70
17437;DHT22;73152;52.198;5.422;2024-02-21T10:12:30;21.10;51.70
17437;DHT22;73152;52.198;5.422;2024-02-21T10:15:02;21.20;51.30
17437;DHT22;73152;52.198;5.422;2024-02-21T10:17:32;21.20;51.10
17437;DHT22;73152;52.198;5.422;2024-02-21T10:20:11;21.10;50.80
17437;DHT22;73152;52.198;5.422;2024-02-21T10:23:00;20.90;50.50
17437;DHT22;73152;52.198;5.422;2024-02-21T10:25:33;20.90;51.20
17437;DHT22;73152;52.198;5.422;2024-02-21T10:28:04;20.90;50.20
17437;DHT22;73152;52.198;5.422;2024-02-21T10:30:33;20.80;50.30
17437;DHT22;73152;52.198;5.422;2024-02-21T10:33:02;20.80;50.50
17437;DHT22;73152;52.198;5.422;2024-02-21T10:35:32;20.80;50.20
17437;DHT22;73152;52.198;5.422;2024-02-21T10:38:04;20.90;49.80
17437;DHT22;73152;52.198;5.422;2024-02-21T10:40:33;20.90;49.80
17437;DHT22;73152;52.198;5.422;2024-02-21T10:43:02;20.90;49.70
17437;DHT22;73152;52.198;5.422;2024-02-21T10:45:34;20.90;49.10
17437;DHT22;73152;52.198;5.422;2024-02-21T10:48:10;20.80;49.30
17437;DHT22;73152;52.198;5.422;2024-02-21T10:50:52;20.80;49.50
17437;DHT22;73152;52.198;5.422;2024-02-21T10:53:35;20.70;49.30
17437;DHT22;73152;52.198;5.422;2024-02-21T10:56:16;20.80;49.20
17437;DHT22;73152;52.198;5.422;2024-02-21T10:58:52;20.80;49.10
17437;DHT22;73152;52.198;5.422;2024-02-21T11:01:22;20.70;48.80
17437;DHT22;73152;52.198;5.422;2024-02-21T11:03:54;20.70;49.40
17437;DHT22;73152;52.198;5.422;2024-02-21T11:06:26;20.70;49.30
17437;DHT22;73152;52.198;5.422;2024-02-21T11:09:04;20.70;48.80
17437;DHT22;73152;52.198;5.422;2024-02-21T11:11:34;20.70;48.90
17437;DHT22;73152;52.198;5.422;2024-02-21T11:14:07;20.60;48.60
17437;DHT22;73152;52.198;5.422;2024-02-21T11:16:37;20.70;49.00
17437;DHT22;73152;52.198;5.422;2024-02-21T11:19:08;20.80;47.80
17437;DHT22;73152;52.198;5.422;2024-02-21T11:21:47;20.90;47.50
17437;DHT22;73152;52.198;5.422;2024-02-21T11:24:28;20.80;47.40
17437;DHT22;73152;52.198;5.422;2024-02-21T11:27:08;20.70;47.80
17437;DHT22;73152;52.198;5.422;2024-02-21T11:29:43;20.70;47.70
17437;DHT22;73152;52.198;5.422;2024-02-21T11:32:15;20.70;47.70
17437;DHT22;73152;52.198;5.422;2024-02-21T11:34:54;20.70;48.00
17437;DHT22;73152;52.198;5.422;2024-02-21T11:37:27;20.50;48.00
17437;DHT22;73152;52.198;5.422;2024-02-21T11:40:01;20.50;47.80
17437;DHT22;73152;52.198;5.422;2024-02-21T11:42:32;20.50;48.00
17437;DHT22;73152;52.198;5.422;2024-02-21T11:45:01;20.70;47.00
17437;DHT22;73152;52.198;5.422;2024-02-21T11:47:30;20.70;47.30
17437;DHT22;73152;52.198;5.422;2024-02-21T11:49:59;20.70;47.50
17437;DHT22;73152;52.198;5.422;2024-02-21T11:52:29;20.70;47.60
17437;DHT22;73152;52.198;5.422;2024-02-21T11:54:58;20.70;47.90
17437;DHT22;73152;52.198;5.422;2024-02-21T11:57:30;20.70;48.00
17437;DHT22;73152;52.198;5.422;2024-02-21T12:00:11;20.80;47.80
17437;DHT22;73152;52.198;5.422;2024-02-21T12:02:42;20.80;47.90
17437;DHT22;73152;52.198;5.422;2024-02-21T12:05:11;20.70;48.60
17437;DHT22;73152;52.198;5.422;2024-02-21T12:07:40;20.60;48.90
17437;DHT22;73152;52.198;5.422;2024-02-21T12:10:13;20.70;48.70
17437;DHT22;73152;52.198;5.422;2024-02-21T12:12:42;20.70;49.10
17437;DHT22;73152;52.198;5.422;2024-02-21T12:15:11;20.70;49.10
17437;DHT22;73152;52.198;5.422;2024-02-21T12:17:40;20.80;48.70
17437;DHT22;73152;52.198;5.422;2024-02-21T12:20:09;20.80;49.40
17437;DHT22;73152;52.198;5.422;2024-02-21T12:22:39;20.90;48.70
17437;DHT22;73152;52.198;5.422;2024-02-21T12:25:23;20.90;49.30
17437;DHT22;73152;52.198;5.422;2024-02-21T12:27:53;20.90;48.70
17437;DHT22;73152;52.198;5.422;2024-02-21T12:30:22;21.00;48.70
17437;DHT22;73152;52.198;5.422;2024-02-21T12:32:51;20.90;49.30
17437;DHT22;73152;52.198;5.422;2024-02-21T12:42:20;21.10;49.30
17437;DHT22;73152;52.198;5.422;2024-02-21T12:51:44;21.20;48.40
17437;DHT22;73152;52.198;5.422;2024-02-21T12:54:14;21.10;49.80
17437;DHT22;73152;52.198;5.422;2024-02-21T12:56:43;21.10;49.50
17437;DHT22;73152;52.198;5.422;2024-02-21T12:59:14;21.00;50.00
17437;DHT22;73152;52.198;5.422;2024-02-21T13:01:43;21.00;49.60
17437;DHT22;73152;52.198;5.422;2024-02-21T13:04:12;21.10;49.50
17437;DHT22;73152;52.198;5.422;2024-02-21T13:06:41;21.00;50.00
17437;DHT22;73152;52.198;5.422;2024-02-21T13:09:10;21.20;48.80
17437;DHT22;73152;52.198;5.422;2024-02-21T13:11:39;21.10;49.70
17437;DHT22;73152;52.198;5.422;2024-02-21T13:14:10;21.10;50.00
17437;DHT22;73152;52.198;5.422;2024-02-21T13:16:41;21.10;50.40
17437;DHT22;73152;52.198;5.422;2024-02-21T13:19:10;21.10;50.70
17437;DHT22;73152;52.198;5.422;2024-02-21T13:21:39;21.10;50.80
17437;DHT22;73152;52.198;5.422;2024-02-21T13:27:37;21.20;50.40
17437;DHT22;73152;52.198;5.422;2024-02-21T13:30:07;21.40;49.40
17437;DHT22;73152;52.198;5.422;2024-02-21T13:36:06;21.40;49.50
17437;DHT22;73152;52.198;5.422;2024-02-21T13:38:35;21.40;49.50
17437;DHT22;73152;52.198;5.422;2024-02-21T13:41:05;21.30;49.80
17437;DHT22;73152;52.198;5.422;2024-02-21T13:43:34;21.30;49.90
17437;DHT22;73152;52.198;5.422;2024-02-21T13:46:03;21.20;50.20
17437;DHT22;73152;52.198;5.422;2024-02-21T13:48:35;21.30;49.90
17437;DHT22;73152;52.198;5.422;2024-02-21T13:51:07;21.30;50.20
17437;DHT22;73152;52.198;5.422;2024-02-21T13:53:37;21.20;50.80
17437;DHT22;73152;52.198;5.422;2024-02-21T13:56:06;21.30;50.30
17437;DHT22;73152;52.198;5.422;2024-02-21T13:58:35;21.30;50.40
17437;DHT22;73152;52.198;5.422;2024-02-21T14:01:04;21.30;50.20
17437;DHT22;73152;52.198;5.422;2024-02-21T14:03:33;21.30;50.50
17437;DHT22;73152;52.198;5.422;2024-02-21T14:06:02;21.30;50.70
17437;DHT22;73152;52.198;5.422;2024-02-21T14:08:34;21.30;50.60
17437;DHT22;73152;52.198;5.422;2024-02-21T14:11:05;21.30;50.70
17437;DHT22;73152;52.198;5.422;2024-02-21T14:13:34;21.30;50.60
17437;DHT22;73152;52.198;5.422;2024-02-21T14:16:09;21.30;49.90
17437;DHT22;73152;52.198;5.422;2024-02-21T14:18:39;21.20;50.60
17437;DHT22;73152;52.198;5.422;2024-02-21T14:21:09;21.30;50.60
17437;DHT22;73152;52.198;5.422;2024-02-21T14:23:41;21.30;49.80
17437;DHT22;73152;52.198;5.422;2024-02-21T14:26:10;21.30;50.30
17437;DHT22;73152;52.198;5.422;2024-02-21T14:28:39;21.30;49.90
17437;DHT22;73152;52.198;5.422;2024-02-21T14:31:08;21.20;50.50
17437;DHT22;73152;52.198;5.422;2024-02-21T14:33:37;21.20;51.00
17437;DHT22;73152;52.198;5.422;2024-02-21T14:36:06;21.20;50.90
17437;DHT22;73152;52.198;5.422;2024-02-21T14:38:37;21.20;51.50
17437;DHT22;73152;52.198;5.422;2024-02-21T14:41:09;21.20;51.60
17437;DHT22;73152;52.198;5.422;2024-02-21T14:43:39;21.30;50.80
17437;DHT22;73152;52.198;5.422;2024-02-21T14:46:09;21.20;51.50
17437;DHT22;73152;52.198;5.422;2024-02-21T14:48:38;21.30;51.40
17437;DHT22;73152;52.198;5.422;2024-02-21T14:51:07;21.30;50.90
17437;DHT22;73152;52.198;5.422;2024-02-21T14:53:35;21.30;51.10
17437;DHT22;73152;52.198;5.422;2024-02-21T14:56:05;21.30;50.60
17437;DHT22;73152;52.198;5.422;2024-02-21T14:58:44;21.30;50.60
17437;DHT22;73152;52.198;5.422;2024-02-21T15:01:12;21.30;51.20
17437;DHT22;73152;52.198;5.422;2024-02-21T15:03:41;21.30;51.40
17437;DHT22;73152;52.198;5.422;2024-02-21T15:06:11;21.30;51.20
17437;DHT22;73152;52.198;5.422;2024-02-21T15:08:40;21.30;51.50
17437;DHT22;73152;52.198;5.422;2024-02-21T15:11:09;21.30;51.60
17437;DHT22;73152;52.198;5.422;2024-02-21T15:13:40;21.30;51.30
17437;DHT22;73152;52.198;5.422;2024-02-21T15:16:09;21.40;51.00
17437;DHT22;73152;52.198;5.422;2024-02-21T15:18:38;21.40;51.20
17437;DHT22;73152;52.198;5.422;2024-02-21T15:21:07;21.30;51.70
17437;DHT22;73152;52.198;5.422;2024-02-21T15:23:39;21.30;51.80
17437;DHT22;73152;52.198;5.422;2024-02-21T15:26:09;21.30;51.70
17437;DHT22;73152;52.198;5.422;2024-02-21T15:28:41;21.40;51.10
17437;DHT22;73152;52.198;5.422;2024-02-21T15:31:19;21.40;51.40
17437;DHT22;73152;52.198;5.422;2024-02-21T15:33:51;21.30;51.60
17437;DHT22;73152;52.198;5.422;2024-02-21T15:36:50;21.40;51.10
17437;DHT22;73152;52.198;5.422;2024-02-21T15:39:19;21.30;51.90
17437;DHT22;73152;52.198;5.422;2024-02-21T15:41:49;21.30;52.10
17437;DHT22;73152;52.198;5.422;2024-02-21T15:44:20;21.30;52.10
17437;DHT22;73152;52.198;5.422;2024-02-21T15:46:49;21.30;52.10
17437;DHT22;73152;52.198;5.422;2024-02-21T15:49:19;21.30;52.20
17437;DHT22;73152;52.198;5.422;2024-02-21T15:51:48;21.30;52.30
17437;DHT22;73152;52.198;5.422;2024-02-21T15:54:16;21.30;52.10
17437;DHT22;73152;52.198;5.422;2024-02-21T15:56:45;21.30;52.40
17437;DHT22;73152;52.198;5.422;2024-02-21T15:59:14;21.30;52.70
17437;DHT22;73152;52.198;5.422;2024-02-21T16:01:45;21.30;52.10
17437;DHT22;73152;52.198;5.422;2024-02-21T16:04:15;21.30;52.40
17437;DHT22;73152;52.198;5.422;2024-02-21T16:06:44;21.30;52.70
17437;DHT22;73152;52.198;5.422;2024-02-21T16:09:17;21.30;52.70
17437;DHT22;73152;52.198;5.422;2024-02-21T16:11:45;21.30;52.30
17437;DHT22;73152;52.198;5.422;2024-02-21T16:14:15;21.30;52.60
17437;DHT22;73152;52.198;5.422;2024-02-21T16:16:47;21.20;52.40
17437;DHT22;73152;52.198;5.422;2024-02-21T16:19:17;21.20;52.10
17437;DHT22;73152;52.198;5.422;2024-02-21T16:21:45;21.20;52.40
17437;DHT22;73152;52.198;5.422;2024-02-21T16:24:14;21.20;52.40
17437;DHT22;73152;52.198;5.422;2024-02-21T16:26:43;21.20;52.40
17437;DHT22;73152;52.198;5.422;2024-02-21T16:29:12;21.30;51.60
17437;DHT22;73152;52.198;5.422;2024-02-21T16:31:42;21.20;51.50
17437;DHT22;73152;52.198;5.422;2024-02-21T16:34:13;21.20;51.80
17437;DHT22;73152;52.198;5.422;2024-02-21T16:36:42;21.10;52.40
17437;DHT22;73152;52.198;5.422;2024-02-21T16:39:11;21.10;52.00
17437;DHT22;73152;52.198;5.422;2024-02-21T16:41:40;21.20;51.40
17437;DHT22;73152;52.198;5.422;2024-02-21T16:44:09;21.20;51.30
17437;DHT22;73152;52.198;5.422;2024-02-21T16:46:38;21.10;51.50